LIRQ/FLR METAR and TAF weather

Enter ICAO airport designator
Station Type Date Time Source
LIRQ METAR 2020/08/15 10:20 UTC NOAA

LIRQ 151020Z VRB04KT 9999 FEW035 32/19 Q1012


Station Type Date Time Source
LIRQ Decoded METAR 2020/08/15 10:20 UTC NOAA

Firenze / Peretola, Italy (LIRQ) 43-48N 011-12E 38M
Aug 15, 2020 - 06:20 AM EDT / 2020.08.15 1020 UTC
Wind: Variable at 5 MPH (4 KT):0
Visibility: greater than 7 mile(s):0
Sky conditions: mostly clear
Temperature: 89 F (32 C)
Dew Point: 66 F (19 C)
Relative Humidity: 46%
Pressure (altimeter): 29.88 in. Hg (1012 hPa)
ob: LIRQ 151020Z VRB04KT 9999 FEW035 32/19 Q1012
cycle: 10

Station Type Date Time Source
LIRQ TAF 2020/08/15 06:21 UTC NOAA

TAF LIRQ 150500Z 1506/1606 24007KT 9999 SCT030

Example: see airport list